sensor_id;sensor_type;location;lat;lon;timestamp;temperature;humidity
7388;DHT22;3735;50.136;11.062;2022-12-08T00:01:18;2.80;99.90
7388;DHT22;3735;50.136;11.062;2022-12-08T00:03:46;2.80;99.90
7388;DHT22;3735;50.136;11.062;2022-12-08T00:09:02;2.80;99.90
7388;DHT22;3735;50.136;11.062;2022-12-08T00:11:47;2.80;99.90
7388;DHT22;3735;50.136;11.062;2022-12-08T00:14:16;2.80;99.90
7388;DHT22;3735;50.136;11.062;2022-12-08T00:16:42;2.80;99.90
7388;DHT22;3735;50.136;11.062;2022-12-08T00:19:08;2.80;99.90
7388;DHT22;3735;50.136;11.062;2022-12-08T00:21:33;2.80;99.90
7388;DHT22;3735;50.136;11.062;2022-12-08T00:23:59;2.80;99.90
7388;DHT22;3735;50.136;11.062;2022-12-08T00:26:25;2.80;99.90
7388;DHT22;3735;50.136;11.062;2022-12-08T00:28:51;2.80;99.90
7388;DHT22;3735;50.136;11.062;2022-12-08T00:31:17;2.80;99.90
7388;DHT22;3735;50.136;11.062;2022-12-08T00:33:43;2.80;99.90
7388;DHT22;3735;50.136;11.062;2022-12-08T00:36:11;2.80;99.90
7388;DHT22;3735;50.136;11.062;2022-12-08T00:38:38;2.80;99.90
7388;DHT22;3735;50.136;11.062;2022-12-08T00:41:13;2.90;99.90
7388;DHT22;3735;50.136;11.062;2022-12-08T00:43:41;2.90;99.90
7388;DHT22;3735;50.136;11.062;2022-12-08T00:46:07;2.90;99.90
7388;DHT22;3735;50.136;11.062;2022-12-08T00:48:33;2.90;99.90
7388;DHT22;3735;50.136;11.062;2022-12-08T00:50:59;2.90;99.90
7388;DHT22;3735;50.136;11.062;2022-12-08T00:53:24;2.90;99.90
7388;DHT22;3735;50.136;11.062;2022-12-08T00:55:50;2.90;99.90
7388;DHT22;3735;50.136;11.062;2022-12-08T00:58:16;2.80;99.90
7388;DHT22;3735;50.136;11.062;2022-12-08T01:00:42;2.80;99.90
7388;DHT22;3735;50.136;11.062;2022-12-08T01:03:12;2.80;99.90
7388;DHT22;3735;50.136;11.062;2022-12-08T01:05:38;2.80;99.90
7388;DHT22;3735;50.136;11.062;2022-12-08T01:08:05;2.80;99.90
7388;DHT22;3735;50.136;11.062;2022-12-08T01:10:36;2.80;99.90
7388;DHT22;3735;50.136;11.062;2022-12-08T01:13:03;2.80;99.90
7388;DHT22;3735;50.136;11.062;2022-12-08T01:15:29;2.80;99.90
7388;DHT22;3735;50.136;11.062;2022-12-08T01:17:55;2.90;99.90
7388;DHT22;3735;50.136;11.062;2022-12-08T01:20:21;2.90;99.90
7388;DHT22;3735;50.136;11.062;2022-12-08T01:22:46;2.90;99.90
7388;DHT22;3735;50.136;11.062;2022-12-08T01:25:12;2.90;99.90
7388;DHT22;3735;50.136;11.062;2022-12-08T01:27:38;2.90;99.90
7388;DHT22;3735;50.136;11.062;2022-12-08T01:30:04;2.90;99.90
7388;DHT22;3735;50.136;11.062;2022-12-08T01:32:31;2.80;99.90
7388;DHT22;3735;50.136;11.062;2022-12-08T01:34:56;2.80;99.90
7388;DHT22;3735;50.136;11.062;2022-12-08T01:37:22;2.80;99.90
7388;DHT22;3735;50.136;11.062;2022-12-08T01:39:48;2.80;99.90
7388;DHT22;3735;50.136;11.062;2022-12-08T01:42:24;2.70;99.90
7388;DHT22;3735;50.136;11.062;2022-12-08T01:44:57;2.70;99.90
7388;DHT22;3735;50.136;11.062;2022-12-08T01:47:29;2.70;99.90
7388;DHT22;3735;50.136;11.062;2022-12-08T01:49:59;2.60;99.90
7388;DHT22;3735;50.136;11.062;2022-12-08T01:52:31;2.60;99.90
7388;DHT22;3735;50.136;11.062;2022-12-08T01:55:19;2.60;99.90
7388;DHT22;3735;50.136;11.062;2022-12-08T01:57:51;2.60;99.90
7388;DHT22;3735;50.136;11.062;2022-12-08T02:00:22;2.60;99.90
7388;DHT22;3735;50.136;11.062;2022-12-08T02:05:26;2.60;99.90
7388;DHT22;3735;50.136;11.062;2022-12-08T02:07:55;2.60;99.90
7388;DHT22;3735;50.136;11.062;2022-12-08T02:10:24;2.50;99.90
7388;DHT22;3735;50.136;11.062;2022-12-08T02:12:55;2.60;99.90
7388;DHT22;3735;50.136;11.062;2022-12-08T02:24:07;2.50;99.90
7388;DHT22;3735;50.136;11.062;2022-12-08T02:41:38;2.60;99.90
7388;DHT22;3735;50.136;11.062;2022-12-08T02:44:25;2.50;99.90
7388;DHT22;3735;50.136;11.062;2022-12-08T02:47:07;2.50;99.90
7388;DHT22;3735;50.136;11.062;2022-12-08T02:49:43;2.50;99.90
7388;DHT22;3735;50.136;11.062;2022-12-08T02:54:43;2.50;99.90
7388;DHT22;3735;50.136;11.062;2022-12-08T03:00:08;2.60;99.90
7388;DHT22;3735;50.136;11.062;2022-12-08T03:11:28;2.60;99.90
7388;DHT22;3735;50.136;11.062;2022-12-08T03:14:01;2.50;99.90
7388;DHT22;3735;50.136;11.062;2022-12-08T03:16:31;2.50;99.90
7388;DHT22;3735;50.136;11.062;2022-12-08T03:19:20;2.50;99.90
7388;DHT22;3735;50.136;11.062;2022-12-08T03:21:53;2.50;99.90
7388;DHT22;3735;50.136;11.062;2022-12-08T03:24:29;2.40;99.90
7388;DHT22;3735;50.136;11.062;2022-12-08T03:27:06;2.40;99.90
7388;DHT22;3735;50.136;11.062;2022-12-08T03:29:38;2.30;99.90
7388;DHT22;3735;50.136;11.062;2022-12-08T03:35:00;2.30;99.90
7388;DHT22;3735;50.136;11.062;2022-12-08T03:37:29;2.30;99.90
7388;DHT22;3735;50.136;11.062;2022-12-08T03:39:55;2.30;99.90
7388;DHT22;3735;50.136;11.062;2022-12-08T03:42:21;2.30;99.90
7388;DHT22;3735;50.136;11.062;2022-12-08T03:44:47;2.20;99.90
7388;DHT22;3735;50.136;11.062;2022-12-08T03:47:13;2.30;99.90
7388;DHT22;3735;50.136;11.062;2022-12-08T03:49:39;2.30;99.90
7388;DHT22;3735;50.136;11.062;2022-12-08T03:52:05;2.30;99.90
7388;DHT22;3735;50.136;11.062;2022-12-08T03:54:30;2.20;99.90
7388;DHT22;3735;50.136;11.062;2022-12-08T03:56:56;2.20;99.90
7388;DHT22;3735;50.136;11.062;2022-12-08T03:59:22;2.30;99.90
7388;DHT22;3735;50.136;11.062;2022-12-08T04:01:48;2.20;99.90
7388;DHT22;3735;50.136;11.062;2022-12-08T04:04:13;2.20;99.90
7388;DHT22;3735;50.136;11.062;2022-12-08T04:06:39;2.20;99.90
7388;DHT22;3735;50.136;11.062;2022-12-08T04:09:05;2.20;99.90
7388;DHT22;3735;50.136;11.062;2022-12-08T04:11:30;2.20;99.90
7388;DHT22;3735;50.136;11.062;2022-12-08T04:13:56;2.20;99.90
7388;DHT22;3735;50.136;11.062;2022-12-08T04:16:23;2.20;99.90
7388;DHT22;3735;50.136;11.062;2022-12-08T04:18:50;2.20;99.90
7388;DHT22;3735;50.136;11.062;2022-12-08T04:21:17;2.20;99.90
7388;DHT22;3735;50.136;11.062;2022-12-08T04:23:43;2.20;99.90
7388;DHT22;3735;50.136;11.062;2022-12-08T04:26:09;2.10;99.90
7388;DHT22;3735;50.136;11.062;2022-12-08T04:28:37;2.10;99.90
7388;DHT22;3735;50.136;11.062;2022-12-08T04:31:03;2.10;99.90
7388;DHT22;3735;50.136;11.062;2022-12-08T04:33:29;2.20;99.90
7388;DHT22;3735;50.136;11.062;2022-12-08T04:35:54;2.10;99.90
7388;DHT22;3735;50.136;11.062;2022-12-08T04:38:20;2.20;99.90
7388;DHT22;3735;50.136;11.062;2022-12-08T04:40:47;2.10;99.90
7388;DHT22;3735;50.136;11.062;2022-12-08T04:43:13;2.20;99.90
7388;DHT22;3735;50.136;11.062;2022-12-08T04:45:40;2.10;99.90
7388;DHT22;3735;50.136;11.062;2022-12-08T04:48:06;2.10;99.90
7388;DHT22;3735;50.136;11.062;2022-12-08T04:50:33;2.10;99.90
7388;DHT22;3735;50.136;11.062;2022-12-08T04:52:59;2.20;99.90
7388;DHT22;3735;50.136;11.062;2022-12-08T04:55:25;2.20;99.90
7388;DHT22;3735;50.136;11.062;2022-12-08T04:57:50;2.20;99.90
7388;DHT22;3735;50.136;11.062;2022-12-08T05:00:16;2.10;99.90
7388;DHT22;3735;50.136;11.062;2022-12-08T05:02:42;2.20;99.90
7388;DHT22;3735;50.136;11.062;2022-12-08T05:05:08;2.20;99.90
7388;DHT22;3735;50.136;11.062;2022-12-08T05:07:34;2.10;99.90
7388;DHT22;3735;50.136;11.062;2022-12-08T05:10:00;2.10;99.90
7388;DHT22;3735;50.136;11.062;2022-12-08T05:12:26;2.10;99.90
7388;DHT22;3735;50.136;11.062;2022-12-08T05:14:52;2.10;99.90
7388;DHT22;3735;50.136;11.062;2022-12-08T05:17:18;2.10;99.90
7388;DHT22;3735;50.136;11.062;2022-12-08T05:19:44;2.10;99.90
7388;DHT22;3735;50.136;11.062;2022-12-08T05:22:10;2.10;99.90
7388;DHT22;3735;50.136;11.062;2022-12-08T05:24:36;2.10;99.90
7388;DHT22;3735;50.136;11.062;2022-12-08T05:27:02;2.10;99.90
7388;DHT22;3735;50.136;11.062;2022-12-08T05:29:28;2.10;99.90
7388;DHT22;3735;50.136;11.062;2022-12-08T05:31:54;2.00;99.90
7388;DHT22;3735;50.136;11.062;2022-12-08T05:34:20;2.00;99.90
7388;DHT22;3735;50.136;11.062;2022-12-08T05:36:46;2.00;99.90
7388;DHT22;3735;50.136;11.062;2022-12-08T05:39:12;2.10;99.90
7388;DHT22;3735;50.136;11.062;2022-12-08T05:41:39;2.00;99.90
7388;DHT22;3735;50.136;11.062;2022-12-08T05:44:05;2.10;99.90
7388;DHT22;3735;50.136;11.062;2022-12-08T05:46:31;2.10;99.90
7388;DHT22;3735;50.136;11.062;2022-12-08T05:48:59;2.10;99.90
7388;DHT22;3735;50.136;11.062;2022-12-08T05:51:26;2.00;99.90
7388;DHT22;3735;50.136;11.062;2022-12-08T05:53:53;2.10;99.90
7388;DHT22;3735;50.136;11.062;2022-12-08T05:56:21;2.10;99.90
7388;DHT22;3735;50.136;11.062;2022-12-08T05:58:47;2.00;99.90
7388;DHT22;3735;50.136;11.062;2022-12-08T06:01:21;2.00;99.90
7388;DHT22;3735;50.136;11.062;2022-12-08T06:03:49;2.00;99.90
7388;DHT22;3735;50.136;11.062;2022-12-08T06:06:16;2.00;99.90
7388;DHT22;3735;50.136;11.062;2022-12-08T06:08:42;2.00;99.90
7388;DHT22;3735;50.136;11.062;2022-12-08T06:11:08;2.00;99.90
7388;DHT22;3735;50.136;11.062;2022-12-08T06:13:34;2.00;99.90
7388;DHT22;3735;50.136;11.062;2022-12-08T06:16:06;2.00;99.90
7388;DHT22;3735;50.136;11.062;2022-12-08T06:18:32;2.00;99.90
7388;DHT22;3735;50.136;11.062;2022-12-08T06:21:03;2.00;99.90
7388;DHT22;3735;50.136;11.062;2022-12-08T06:23:30;2.00;99.90
7388;DHT22;3735;50.136;11.062;2022-12-08T06:26:03;2.00;99.90
7388;DHT22;3735;50.136;11.062;2022-12-08T06:28:31;2.00;99.90
7388;DHT22;3735;50.136;11.062;2022-12-08T06:30:58;2.00;99.90
7388;DHT22;3735;50.136;11.062;2022-12-08T06:33:25;2.00;99.90
7388;DHT22;3735;50.136;11.062;2022-12-08T06:35:51;2.00;99.90
7388;DHT22;3735;50.136;11.062;2022-12-08T06:38:17;1.90;99.90
7388;DHT22;3735;50.136;11.062;2022-12-08T06:40:43;1.90;99.90
7388;DHT22;3735;50.136;11.062;2022-12-08T06:43:09;1.90;99.90
7388;DHT22;3735;50.136;11.062;2022-12-08T06:45:35;1.80;99.90
7388;DHT22;3735;50.136;11.062;2022-12-08T06:48:01;1.80;99.90
7388;DHT22;3735;50.136;11.062;2022-12-08T06:50:27;1.80;99.90
7388;DHT22;3735;50.136;11.062;2022-12-08T06:52:53;1.80;99.90
7388;DHT22;3735;50.136;11.062;2022-12-08T06:55:19;1.90;99.90
7388;DHT22;3735;50.136;11.062;2022-12-08T06:57:45;1.90;99.90
7388;DHT22;3735;50.136;11.062;2022-12-08T07:00:11;1.90;99.90
7388;DHT22;3735;50.136;11.062;2022-12-08T07:02:37;1.90;99.90
7388;DHT22;3735;50.136;11.062;2022-12-08T07:05:03;1.90;99.90
7388;DHT22;3735;50.136;11.062;2022-12-08T07:07:29;1.90;99.90
7388;DHT22;3735;50.136;11.062;2022-12-08T07:09:55;2.00;99.90
7388;DHT22;3735;50.136;11.062;2022-12-08T07:12:20;2.00;99.90
7388;DHT22;3735;50.136;11.062;2022-12-08T07:14:46;2.00;99.90
7388;DHT22;3735;50.136;11.062;2022-12-08T07:17:12;2.00;99.90
7388;DHT22;3735;50.136;11.062;2022-12-08T07:19:38;2.00;99.90
7388;DHT22;3735;50.136;11.062;2022-12-08T07:22:03;2.10;99.90
7388;DHT22;3735;50.136;11.062;2022-12-08T07:24:29;2.20;99.90
7388;DHT22;3735;50.136;11.062;2022-12-08T07:26:55;2.20;99.90
7388;DHT22;3735;50.136;11.062;2022-12-08T07:29:20;2.20;99.90
7388;DHT22;3735;50.136;11.062;2022-12-08T07:31:46;2.20;99.90
7388;DHT22;3735;50.136;11.062;2022-12-08T07:34:12;2.20;99.90
7388;DHT22;3735;50.136;11.062;2022-12-08T07:36:38;2.20;99.90
7388;DHT22;3735;50.136;11.062;2022-12-08T07:39:04;2.30;99.90
7388;DHT22;3735;50.136;11.062;2022-12-08T07:41:30;2.20;99.90
7388;DHT22;3735;50.136;11.062;2022-12-08T07:43:56;2.20;99.90
7388;DHT22;3735;50.136;11.062;2022-12-08T07:46:24;2.20;99.90
7388;DHT22;3735;50.136;11.062;2022-12-08T07:48:52;2.20;99.90
7388;DHT22;3735;50.136;11.062;2022-12-08T07:51:19;2.20;99.90
7388;DHT22;3735;50.136;11.062;2022-12-08T07:53:47;2.20;99.90
7388;DHT22;3735;50.136;11.062;2022-12-08T07:56:14;2.30;99.90
7388;DHT22;3735;50.136;11.062;2022-12-08T07:58:40;2.30;99.90
7388;DHT22;3735;50.136;11.062;2022-12-08T08:01:27;2.30;99.90
7388;DHT22;3735;50.136;11.062;2022-12-08T08:03:58;2.30;99.90
7388;DHT22;3735;50.136;11.062;2022-12-08T08:06:27;2.30;99.90
7388;DHT22;3735;50.136;11.062;2022-12-08T08:08:53;2.40;99.90
7388;DHT22;3735;50.136;11.062;2022-12-08T08:11:19;2.40;99.90
7388;DHT22;3735;50.136;11.062;2022-12-08T08:13:45;2.40;99.90
7388;DHT22;3735;50.136;11.062;2022-12-08T08:16:11;2.40;99.90
7388;DHT22;3735;50.136;11.062;2022-12-08T08:18:38;2.40;99.90
7388;DHT22;3735;50.136;11.062;2022-12-08T08:21:04;2.40;99.90
7388;DHT22;3735;50.136;11.062;2022-12-08T08:23:31;2.50;99.90
7388;DHT22;3735;50.136;11.062;2022-12-08T08:26:01;2.50;99.90
7388;DHT22;3735;50.136;11.062;2022-12-08T08:28:29;2.50;99.90
7388;DHT22;3735;50.136;11.062;2022-12-08T08:30:55;2.50;99.90
7388;DHT22;3735;50.136;11.062;2022-12-08T08:33:22;2.50;99.90
7388;DHT22;3735;50.136;11.062;2022-12-08T08:35:47;2.60;99.90
7388;DHT22;3735;50.136;11.062;2022-12-08T08:38:13;2.70;99.90
7388;DHT22;3735;50.136;11.062;2022-12-08T08:40:39;2.80;99.90
7388;DHT22;3735;50.136;11.062;2022-12-08T08:43:05;2.80;99.90
7388;DHT22;3735;50.136;11.062;2022-12-08T08:45:32;2.80;99.90
7388;DHT22;3735;50.136;11.062;2022-12-08T08:47:59;2.80;99.90
7388;DHT22;3735;50.136;11.062;2022-12-08T08:50:25;2.90;99.90
7388;DHT22;3735;50.136;11.062;2022-12-08T08:52:51;2.90;99.90
7388;DHT22;3735;50.136;11.062;2022-12-08T08:55:17;2.90;99.90
7388;DHT22;3735;50.136;11.062;2022-12-08T08:57:43;2.90;99.90
7388;DHT22;3735;50.136;11.062;2022-12-08T09:00:10;2.90;99.90
7388;DHT22;3735;50.136;11.062;2022-12-08T09:02:37;2.90;99.90
7388;DHT22;3735;50.136;11.062;2022-12-08T09:05:04;2.90;99.90
7388;DHT22;3735;50.136;11.062;2022-12-08T09:07:30;3.00;99.90
7388;DHT22;3735;50.136;11.062;2022-12-08T09:09:56;3.00;99.90
7388;DHT22;3735;50.136;11.062;2022-12-08T09:12:22;3.10;99.90
7388;DHT22;3735;50.136;11.062;2022-12-08T09:14:48;3.20;99.90
7388;DHT22;3735;50.136;11.062;2022-12-08T09:17:14;3.40;99.90
7388;DHT22;3735;50.136;11.062;2022-12-08T09:19:40;3.40;99.90
7388;DHT22;3735;50.136;11.062;2022-12-08T09:22:06;3.50;99.90
7388;DHT22;3735;50.136;11.062;2022-12-08T09:24:31;3.60;99.90
7388;DHT22;3735;50.136;11.062;2022-12-08T09:26:57;3.60;99.90
7388;DHT22;3735;50.136;11.062;2022-12-08T09:29:23;3.70;99.90
7388;DHT22;3735;50.136;11.062;2022-12-08T09:31:49;3.70;99.90
7388;DHT22;3735;50.136;11.062;2022-12-08T09:34:15;3.80;99.90
7388;DHT22;3735;50.136;11.062;2022-12-08T09:36:41;3.90;99.90
7388;DHT22;3735;50.136;11.062;2022-12-08T09:39:07;4.00;99.90
7388;DHT22;3735;50.136;11.062;2022-12-08T09:46:51;4.10;99.90
7388;DHT22;3735;50.136;11.062;2022-12-08T09:49:22;4.00;99.90
7388;DHT22;3735;50.136;11.062;2022-12-08T09:52:01;4.00;99.90
7388;DHT22;3735;50.136;11.062;2022-12-08T09:54:32;3.90;99.90
7388;DHT22;3735;50.136;11.062;2022-12-08T09:57:04;3.80;99.90
7388;DHT22;3735;50.136;11.062;2022-12-08T09:59:34;3.70;99.90
7388;DHT22;3735;50.136;11.062;2022-12-08T10:02:01;3.70;99.90
7388;DHT22;3735;50.136;11.062;2022-12-08T10:04:38;3.70;99.90
7388;DHT22;3735;50.136;11.062;2022-12-08T10:10:08;3.70;99.90
7388;DHT22;3735;50.136;11.062;2022-12-08T10:18:37;3.60;99.90
7388;DHT22;3735;50.136;11.062;2022-12-08T10:21:18;3.80;99.90
7388;DHT22;3735;50.136;11.062;2022-12-08T10:23:50;3.80;99.90
7388;DHT22;3735;50.136;11.062;2022-12-08T10:26:20;3.90;99.90
7388;DHT22;3735;50.136;11.062;2022-12-08T10:28:47;4.00;99.90
7388;DHT22;3735;50.136;11.062;2022-12-08T10:31:18;4.00;99.90
7388;DHT22;3735;50.136;11.062;2022-12-08T10:33:48;4.00;99.90
7388;DHT22;3735;50.136;11.062;2022-12-08T10:36:21;4.00;99.90
7388;DHT22;3735;50.136;11.062;2022-12-08T10:38:46;4.00;99.90
7388;DHT22;3735;50.136;11.062;2022-12-08T10:41:13;4.10;99.90
7388;DHT22;3735;50.136;11.062;2022-12-08T10:43:43;4.00;99.90
7388;DHT22;3735;50.136;11.062;2022-12-08T10:48:52;3.90;99.90
7388;DHT22;3735;50.136;11.062;2022-12-08T10:51:37;3.90;99.90
7388;DHT22;3735;50.136;11.062;2022-12-08T10:54:27;3.90;99.90
7388;DHT22;3735;50.136;11.062;2022-12-08T10:57:02;3.90;99.90
7388;DHT22;3735;50.136;11.062;2022-12-08T10:59:32;3.80;99.90
7388;DHT22;3735;50.136;11.062;2022-12-08T11:01:59;3.70;99.90
7388;DHT22;3735;50.136;11.062;2022-12-08T11:04:35;3.80;99.90
7388;DHT22;3735;50.136;11.062;2022-12-08T11:07:04;3.80;99.90
7388;DHT22;3735;50.136;11.062;2022-12-08T11:09:42;3.80;99.90
7388;DHT22;3735;50.136;11.062;2022-12-08T11:12:18;3.70;99.90
7388;DHT22;3735;50.136;11.062;2022-12-08T11:14:46;3.70;99.90
7388;DHT22;3735;50.136;11.062;2022-12-08T11:20:19;3.80;99.90
7388;DHT22;3735;50.136;11.062;2022-12-08T11:22:52;3.70;99.90
7388;DHT22;3735;50.136;11.062;2022-12-08T11:27:50;3.60;99.90
7388;DHT22;3735;50.136;11.062;2022-12-08T11:30:23;3.60;99.90
7388;DHT22;3735;50.136;11.062;2022-12-08T11:33:10;3.60;99.90
7388;DHT22;3735;50.136;11.062;2022-12-08T11:35:43;3.60;99.90
7388;DHT22;3735;50.136;11.062;2022-12-08T11:38:20;3.60;99.90
7388;DHT22;3735;50.136;11.062;2022-12-08T11:40:54;3.60;99.90
7388;DHT22;3735;50.136;11.062;2022-12-08T11:43:35;3.60;99.90
7388;DHT22;3735;50.136;11.062;2022-12-08T11:49:02;3.70;99.90
7388;DHT22;3735;50.136;11.062;2022-12-08T11:51:38;4.00;99.90
7388;DHT22;3735;50.136;11.062;2022-12-08T11:54:35;4.30;99.90
7388;DHT22;3735;50.136;11.062;2022-12-08T11:57:12;4.50;99.90
7388;DHT22;3735;50.136;11.062;2022-12-08T11:59:48;4.60;99.90
7388;DHT22;3735;50.136;11.062;2022-12-08T12:10:46;4.70;99.90
7388;DHT22;3735;50.136;11.062;2022-12-08T12:13:51;4.60;99.90
7388;DHT22;3735;50.136;11.062;2022-12-08T12:16:55;4.40;99.90
7388;DHT22;3735;50.136;11.062;2022-12-08T12:19:26;4.40;99.90
7388;DHT22;3735;50.136;11.062;2022-12-08T12:21:57;4.30;99.90
7388;DHT22;3735;50.136;11.062;2022-12-08T12:24:33;4.30;99.90
7388;DHT22;3735;50.136;11.062;2022-12-08T12:27:07;4.10;99.90
7388;DHT22;3735;50.136;11.062;2022-12-08T12:29:52;4.00;99.90
7388;DHT22;3735;50.136;11.062;2022-12-08T12:32:22;4.00;99.90
7388;DHT22;3735;50.136;11.062;2022-12-08T12:34:53;3.90;99.90
7388;DHT22;3735;50.136;11.062;2022-12-08T12:37:38;4.00;99.90
7388;DHT22;3735;50.136;11.062;2022-12-08T12:40:17;3.90;99.90
7388;DHT22;3735;50.136;11.062;2022-12-08T12:45:35;4.00;99.90
7388;DHT22;3735;50.136;11.062;2022-12-08T12:55:53;4.30;99.90
7388;DHT22;3735;50.136;11.062;2022-12-08T13:06:56;4.60;99.90
7388;DHT22;3735;50.136;11.062;2022-12-08T13:09:32;4.70;99.90
7388;DHT22;3735;50.136;11.062;2022-12-08T13:12:09;4.60;99.90
7388;DHT22;3735;50.136;11.062;2022-12-08T13:14:48;4.50;99.90
7388;DHT22;3735;50.136;11.062;2022-12-08T13:17:36;4.40;99.90
7388;DHT22;3735;50.136;11.062;2022-12-08T13:20:05;4.30;99.90
7388;DHT22;3735;50.136;11.062;2022-12-08T13:23:00;4.30;99.90
7388;DHT22;3735;50.136;11.062;2022-12-08T13:28:28;4.30;99.90
7388;DHT22;3735;50.136;11.062;2022-12-08T13:30:59;4.30;99.90
7388;DHT22;3735;50.136;11.062;2022-12-08T13:33:29;4.30;99.90
7388;DHT22;3735;50.136;11.062;2022-12-08T13:36:24;4.30;99.90
7388;DHT22;3735;50.136;11.062;2022-12-08T13:38:55;4.30;99.90
7388;DHT22;3735;50.136;11.062;2022-12-08T13:41:52;4.20;99.90
7388;DHT22;3735;50.136;11.062;2022-12-08T13:44:45;4.00;99.90
7388;DHT22;3735;50.136;11.062;2022-12-08T13:47:19;3.90;99.90
7388;DHT22;3735;50.136;11.062;2022-12-08T13:50:34;3.90;99.90
7388;DHT22;3735;50.136;11.062;2022-12-08T13:53:04;3.70;99.90
7388;DHT22;3735;50.136;11.062;2022-12-08T13:55:47;3.60;99.90
7388;DHT22;3735;50.136;11.062;2022-12-08T13:58:24;3.60;99.90
7388;DHT22;3735;50.136;11.062;2022-12-08T14:06:30;3.50;99.90
7388;DHT22;3735;50.136;11.062;2022-12-08T14:09:03;3.40;99.90
7388;DHT22;3735;50.136;11.062;2022-12-08T14:11:34;3.40;99.90
7388;DHT22;3735;50.136;11.062;2022-12-08T14:16:41;3.30;99.90
7388;DHT22;3735;50.136;11.062;2022-12-08T14:19:17;3.30;99.90
7388;DHT22;3735;50.136;11.062;2022-12-08T14:24:33;3.30;99.90
7388;DHT22;3735;50.136;11.062;2022-12-08T14:27:03;3.20;99.90
7388;DHT22;3735;50.136;11.062;2022-12-08T14:32:43;3.20;99.90
7388;DHT22;3735;50.136;11.062;2022-12-08T14:35:29;3.10;99.90
7388;DHT22;3735;50.136;11.062;2022-12-08T14:38:11;3.10;99.90
7388;DHT22;3735;50.136;11.062;2022-12-08T14:40:39;3.10;99.90
7388;DHT22;3735;50.136;11.062;2022-12-08T14:53:56;3.00;99.90
7388;DHT22;3735;50.136;11.062;2022-12-08T14:56:25;3.00;99.90
7388;DHT22;3735;50.136;11.062;2022-12-08T14:59:24;3.00;99.90
7388;DHT22;3735;50.136;11.062;2022-12-08T15:01:53;2.90;99.90
7388;DHT22;3735;50.136;11.062;2022-12-08T15:05:04;2.90;99.90
7388;DHT22;3735;50.136;11.062;2022-12-08T15:07:49;2.90;99.90
7388;DHT22;3735;50.136;11.062;2022-12-08T15:15:55;2.90;99.90
7388;DHT22;3735;50.136;11.062;2022-12-08T15:18:34;2.90;99.90
7388;DHT22;3735;50.136;11.062;2022-12-08T15:21:04;2.90;99.90
7388;DHT22;3735;50.136;11.062;2022-12-08T15:23:44;2.90;99.90
7388;DHT22;3735;50.136;11.062;2022-12-08T15:26:24;2.90;99.90
7388;DHT22;3735;50.136;11.062;2022-12-08T15:28:52;2.80;99.90
7388;DHT22;3735;50.136;11.062;2022-12-08T15:31:18;2.80;99.90
7388;DHT22;3735;50.136;11.062;2022-12-08T15:33:44;2.80;99.90
7388;DHT22;3735;50.136;11.062;2022-12-08T15:36:10;2.70;99.90
7388;DHT22;3735;50.136;11.062;2022-12-08T15:38:36;2.70;99.90
7388;DHT22;3735;50.136;11.062;2022-12-08T15:41:02;2.70;99.90
7388;DHT22;3735;50.136;11.062;2022-12-08T15:43:30;2.60;99.90
7388;DHT22;3735;50.136;11.062;2022-12-08T15:45:56;2.60;99.90
7388;DHT22;3735;50.136;11.062;2022-12-08T15:48:25;2.60;99.90
7388;DHT22;3735;50.136;11.062;2022-12-08T15:50:53;2.50;99.90
7388;DHT22;3735;50.136;11.062;2022-12-08T15:53:19;2.40;99.90
7388;DHT22;3735;50.136;11.062;2022-12-08T15:55:45;2.30;99.90
7388;DHT22;3735;50.136;11.062;2022-12-08T15:58:22;2.20;99.90
7388;DHT22;3735;50.136;11.062;2022-12-08T16:00:51;2.10;99.90
7388;DHT22;3735;50.136;11.062;2022-12-08T16:03:26;2.00;99.90
7388;DHT22;3735;50.136;11.062;2022-12-08T16:05:54;1.90;99.90
7388;DHT22;3735;50.136;11.062;2022-12-08T16:08:22;1.80;99.90
7388;DHT22;3735;50.136;11.062;2022-12-08T16:10:48;1.80;99.90
7388;DHT22;3735;50.136;11.062;2022-12-08T16:13:15;1.80;99.90
7388;DHT22;3735;50.136;11.062;2022-12-08T16:16:01;1.80;99.90
7388;DHT22;3735;50.136;11.062;2022-12-08T16:18:34;1.70;99.90
7388;DHT22;3735;50.136;11.062;2022-12-08T16:21:01;1.70;99.90
7388;DHT22;3735;50.136;11.062;2022-12-08T16:23:28;1.80;99.90
7388;DHT22;3735;50.136;11.062;2022-12-08T16:25:54;1.90;99.90
7388;DHT22;3735;50.136;11.062;2022-12-08T16:28:21;2.00;99.90
7388;DHT22;3735;50.136;11.062;2022-12-08T16:30:47;2.10;99.90
7388;DHT22;3735;50.136;11.062;2022-12-08T16:33:13;2.20;99.90
7388;DHT22;3735;50.136;11.062;2022-12-08T16:35:40;2.20;99.90
7388;DHT22;3735;50.136;11.062;2022-12-08T16:38:06;2.40;99.90
7388;DHT22;3735;50.136;11.062;2022-12-08T16:40:33;2.40;99.90
7388;DHT22;3735;50.136;11.062;2022-12-08T16:43:18;2.50;99.90
7388;DHT22;3735;50.136;11.062;2022-12-08T16:45:44;2.50;99.90
7388;DHT22;3735;50.136;11.062;2022-12-08T16:48:13;2.40;99.90
7388;DHT22;3735;50.136;11.062;2022-12-08T16:50:43;2.40;99.90
7388;DHT22;3735;50.136;11.062;2022-12-08T16:53:11;2.40;99.90
7388;DHT22;3735;50.136;11.062;2022-12-08T16:55:38;2.40;99.90
7388;DHT22;3735;50.136;11.062;2022-12-08T16:58:04;2.40;99.90
7388;DHT22;3735;50.136;11.062;2022-12-08T17:00:32;2.30;99.90
7388;DHT22;3735;50.136;11.062;2022-12-08T17:03:05;2.30;99.90
7388;DHT22;3735;50.136;11.062;2022-12-08T17:05:34;2.20;99.90
7388;DHT22;3735;50.136;11.062;2022-12-08T17:08:03;2.30;99.90
7388;DHT22;3735;50.136;11.062;2022-12-08T17:10:30;2.20;99.90
7388;DHT22;3735;50.136;11.062;2022-12-08T17:13:01;2.30;99.90
7388;DHT22;3735;50.136;11.062;2022-12-08T17:15:27;2.30;99.90
7388;DHT22;3735;50.136;11.062;2022-12-08T17:17:53;2.30;99.90
7388;DHT22;3735;50.136;11.062;2022-12-08T17:20:22;2.30;99.90
7388;DHT22;3735;50.136;11.062;2022-12-08T17:22:53;2.20;99.90
7388;DHT22;3735;50.136;11.062;2022-12-08T17:25:19;2.30;99.90
7388;DHT22;3735;50.136;11.062;2022-12-08T17:27:45;2.20;99.90
7388;DHT22;3735;50.136;11.062;2022-12-08T17:30:11;2.20;99.90
7388;DHT22;3735;50.136;11.062;2022-12-08T17:32:41;2.10;99.90
7388;DHT22;3735;50.136;11.062;2022-12-08T17:35:07;2.20;99.90
7388;DHT22;3735;50.136;11.062;2022-12-08T17:37:33;2.20;99.90
7388;DHT22;3735;50.136;11.062;2022-12-08T17:39:59;2.20;99.90
7388;DHT22;3735;50.136;11.062;2022-12-08T17:42:25;2.20;99.90
7388;DHT22;3735;50.136;11.062;2022-12-08T17:44:52;2.30;99.90
7388;DHT22;3735;50.136;11.062;2022-12-08T17:47:18;2.30;99.90
7388;DHT22;3735;50.136;11.062;2022-12-08T17:49:44;2.40;99.90
7388;DHT22;3735;50.136;11.062;2022-12-08T17:52:10;2.40;99.90
7388;DHT22;3735;50.136;11.062;2022-12-08T17:54:37;2.40;99.90
7388;DHT22;3735;50.136;11.062;2022-12-08T17:57:03;2.50;99.90
7388;DHT22;3735;50.136;11.062;2022-12-08T17:59:31;2.40;99.90
7388;DHT22;3735;50.136;11.062;2022-12-08T18:01:58;2.40;99.90
7388;DHT22;3735;50.136;11.062;2022-12-08T18:04:32;2.40;99.90
7388;DHT22;3735;50.136;11.062;2022-12-08T18:06:58;2.40;99.90
7388;DHT22;3735;50.136;11.062;2022-12-08T18:09:25;2.40;99.90
7388;DHT22;3735;50.136;11.062;2022-12-08T18:11:51;2.30;99.90
7388;DHT22;3735;50.136;11.062;2022-12-08T18:14:17;2.40;99.90
7388;DHT22;3735;50.136;11.062;2022-12-08T18:16:44;2.40;99.90
7388;DHT22;3735;50.136;11.062;2022-12-08T18:19:12;2.40;99.90
7388;DHT22;3735;50.136;11.062;2022-12-08T18:21:39;2.40;99.90
7388;DHT22;3735;50.136;11.062;2022-12-08T18:24:06;2.40;99.90
7388;DHT22;3735;50.136;11.062;2022-12-08T18:26:33;2.40;99.90
7388;DHT22;3735;50.136;11.062;2022-12-08T18:28:59;2.40;99.90
7388;DHT22;3735;50.136;11.062;2022-12-08T18:31:25;2.40;99.90